KPWK

Chicago Executive Airport

Chicago/Prospect Heights/Wheeling, Illinois, USA
METAR KPWK 180152Z 04003KT 10SM FEW017 FEW023 25/20 A3001 RMK AO2 SLP156 T02500200
Observed Flight Rules
Aug-18 @ 01:52 UTC (37 minutes ago) Visual Flight Rules
Wind Visibility Clouds
40° at 3 knots 10 miles
  • Few at 1,700' AGL
  • Few at 2,300' AGL
Temperatures Readings
Current 25°C / 77°F
Dewpoint 20°C / 68°F
Humidity 74%
Altimeter 30.01" Hg
Pressure 1015.6 hPa
Elevation 203
METAR KPWK 180152Z 04003KT 10SM FEW017 FEW023 25/20 A3001 RMK AO2 SLP156 T02500200
Observed Flight Rules
Aug-18 @ 01:52 UTC
(37 minutes ago)
VFR
Wind Visibility
40° at 3 knots 10 miles
Clouds
  • Few at 1,700' AGL
  • Few at 2,300' AGL
Temperature Dewpoint
25°C / 77°F 20°C / 68°F
Humidity Altimeter Pressure
74% 30.01" Hg 1015.6 hPa